Time;durP1;ratioP1;P1;durP2;ratioP2;P2;SDS_P1;SDS_P2;PMS_P1;PMS_P2;Temp;Humidity;BMP_temperature;BMP_pressure;BME280_temperature;BME280_humidity;BME280_pressure;Samples;Min_cycle;Max_cycle;Signal;HPM_P1;HPM_P2
2023/07/25 00:00:08;;;;;;;;;;;;;;;27.23;54.29;99127.25;297405;33;4065;-76
2023/07/25 00:00:18;;;;;;;;;;;;;;;27.22;54.37;99125.56;299205;32;5205;-76
2023/07/25 00:00:28;;;;;;;;;;;;;;;27.21;54.36;99126.59;300147;32;1242;-76
2023/07/25 00:00:39;;;;;;;;;;;;;;;27.22;54.11;99128.25;296988;33;6374;-76
2023/07/25 00:00:49;;;;;;;;;;;;;;;27.22;54.42;99130.13;294618;33;6838;-77
2023/07/25 00:00:59;;;;;;;;;;;;;;;27.22;54.19;99130.13;294196;33;1330;-76
2023/07/25 00:01:09;;;;;;;;;;;;;;;27.21;54.21;99126.59;291129;33;6702;-76
2023/07/25 00:01:20;;;;;;;;;;;;;;;27.21;54.27;99126.59;290596;33;5726;-76
2023/07/25 00:01:30;;;;;;;;;;;;;;;27.21;54.54;99131.97;291153;34;1466;-76
2023/07/25 00:01:40;;;;;;;;;;;;;;;27.21;54.31;99131.97;291769;33;5997;-76
2023/07/25 00:01:50;;;;;;;;;;;;;;;27.19;54.23;99131.31;293437;33;4593;-76
2023/07/25 00:02:00;;;;;;;;;;;;;;;27.21;54.38;99128.44;295115;33;1330;-76
2023/07/25 00:02:11;;;;;;;;;;;;;;;27.17;54.75;99134.19;286357;34;5662;-76
2023/07/25 00:02:21;;;;;;;;;;;;;;;27.15;54.64;99130.00;286567;34;6476;-76
2023/07/25 00:02:31;;;;;;;;;;;;;;;27.14;54.13;99128.31;285427;34;7432;-76
2023/07/25 00:02:41;;;;;;;;;;;;;;;27.13;54.53;99132.03;286618;34;822;-76
2023/07/25 00:02:52;;;;;;;;;;;;;;;27.10;54.62;99132.38;284126;34;8890;-76
2023/07/25 00:03:02;;;;;;;;;;;;;;;27.10;54.58;99135.06;282590;34;10086;-76
2023/07/25 00:03:12;;;;;;;;;;;;;;;27.09;54.69;99136.09;284864;34;1434;-76
2023/07/25 00:03:22;;;;;;;;;;;;;;;27.09;54.71;99130.72;284237;34;10123;-76
2023/07/25 00:03:33;;;;;;;;;;;;;;;27.08;54.47;99129.88;284100;34;7602;-76
2023/07/25 00:03:46;;;;;;;;;;;;;;;27.10;54.57;99127.84;285628;34;888;-76
2023/07/25 00:05:39;;;;;;;;;;;;;;;27.12;54.76;99133.03;2496572;27;19937;-75
2023/07/25 00:05:49;;;;;;;;;;;;;;;27.13;54.69;99135.56;353508;27;1256;-75
2023/07/25 00:06:00;;;;;;;;;;;;;;;27.15;54.72;99130.84;351742;28;1244;-75
2023/07/25 00:06:10;;;;;;;;;;;;;;;27.17;54.46;99128.81;350391;28;879;-75
2023/07/25 00:06:20;;;;;;;;;;;;;;;27.17;54.30;99133.34;348960;28;1336;-75
2023/07/25 00:06:31;;;;;;;;;;;;;;;27.12;54.77;99130.34;349089;28;1355;-75
2023/07/25 00:06:41;;;;;;;;;;;;;;;27.13;54.62;99132.03;351331;28;1377;-75
2023/07/25 00:06:51;;;;;;;;;;;;;;;27.12;54.64;99135.72;350367;28;1345;-75
2023/07/25 00:07:01;;;;;;;;;;;;;;;27.09;54.66;99136.09;351775;28;1284;-75
2023/07/25 00:07:12;;;;;;;;;;;;;;;27.08;54.70;99124.50;350348;28;1329;-75
2023/07/25 00:07:22;;;;;;;;;;;;;;;27.09;54.61;99133.41;351618;28;1345;-75
2023/07/25 00:07:32;;;;;;;;;;;;;;;27.08;54.53;99137.09;351389;28;1443;-75
2023/07/25 00:07:42;;;;;;;;;;;;;;;27.09;54.88;99138.78;350374;28;1349;-75
2023/07/25 00:07:52;;;;;;;;;;;;;;;27.08;54.83;99140.63;349086;28;1341;-75
2023/07/25 00:08:03;;;;;;;;;;;;;;;27.09;54.65;99138.78;350423;28;776;-75
2023/07/25 00:08:13;;;;;;;;;;;;;;;27.09;54.88;99136.09;350176;28;1591;-75
2023/07/25 00:08:23;;;;;;;;;;;;;;;27.09;55.07;99136.09;349133;28;1010;-75
2023/07/25 00:08:33;;;;;;;;;;;;;;;27.08;54.93;99135.25;348935;28;1501;-75
2023/07/25 00:08:44;;;;;;;;;;;;;;;27.04;55.10;99133.09;349109;28;1117;-75
2023/07/25 00:08:54;;;;;;;;;;;;;;;27.02;55.39;99133.28;348963;28;1321;-75
2023/07/25 00:09:04;;;;;;;;;;;;;;;27.01;55.33;99133.47;349927;28;829;-75
2023/07/25 00:09:14;;;;;;;;;;;;;;;26.98;55.73;99137.34;348265;28;1230;-75
2023/07/25 00:09:24;;;;;;;;;;;;;;;26.98;55.51;99137.34;349138;28;954;-75
2023/07/25 00:09:35;;;;;;;;;;;;;;;26.98;55.56;99134.66;349608;28;1005;-75
2023/07/25 00:09:45;;;;;;;;;;;;;;;27.01;55.74;99141.53;350734;28;856;-75
2023/07/25 00:09:56;;;;;;;;;;;;;;;27.00;55.51;99139.84;350450;28;914;-75
2023/07/25 00:10:07;;;;;;;;;;;;;;;27.01;55.65;99130.78;350396;28;1520;-75
2023/07/25 00:10:18;;;;;;;;;;;;;;;27.03;55.54;99137.63;349002;28;1549;-75
2023/07/25 00:10:28;;;;;;;;;;;;;;;27.01;55.74;99128.91;347763;28;792;-75
2023/07/25 00:10:38;;;;;;;;;;;;;;;27.01;55.49;99136.16;347700;28;1263;-75
2023/07/25 00:10:48;;;;;;;;;;;;;;;27.03;55.17;99142.19;344987;28;1230;-75
2023/07/25 00:10:59;;;;;;;;;;;;;;;27.05;55.65;99140.97;346689;28;1233;-75
2023/07/25 00:11:13;;;;;;;;;;;;;;;27.06;55.63;99142.66;350312;28;1246;-75
2023/07/25 00:11:23;;;;;;;;;;;;;;;27.07;55.64;99138.13;349044;28;992;-75
2023/07/25 00:11:33;;;;;;;;;;;;;;;27.07;55.49;99135.44;346889;28;1083;-75
2023/07/25 00:11:44;;;;;;;;;;;;;;;27.06;56.07;99139.13;345857;28;1359;-75
2023/07/25 00:11:54;;;;;;;;;;;;;;;27.02;55.69;99138.66;347776;28;914;-75
2023/07/25 00:12:05;;;;;;;;;;;;;;;27.03;55.89;99131.44;348081;28;1203;-75
2023/07/25 00:12:15;;;;;;;;;;;;;;;26.99;56.22;99133.63;350482;28;1246;-75
2023/07/25 00:12:25;;;;;;;;;;;;;;;26.97;56.23;99140.19;349072;28;1207;-75
2023/07/25 00:12:35;;;;;;;;;;;;;;;26.96;56.46;99135.84;348873;28;1323;-75
2023/07/25 00:12:46;;;;;;;;;;;;;;;26.94;56.54;99137.84;346356;28;721;-75
2023/07/25 00:12:56;;;;;;;;;;;;;;;26.95;56.13;99134.13;346245;28;1251;-75
2023/07/25 00:13:06;;;;;;;;;;;;;;;26.97;56.49;99137.53;348022;28;836;-75
2023/07/25 00:13:16;;;;;;;;;;;;;;;26.98;56.35;99129.28;347478;28;850;-75
2023/07/25 00:13:27;;;;;;;;;;;;;;;27.00;56.43;99137.16;345638;28;1244;-75
2023/07/25 00:13:37;;;;;;;;;;;;;;;27.00;56.60;99142.53;345798;28;1304;-75
2023/07/25 00:13:48;;;;;;;;;;;;;;;26.99;56.73;99140.84;343249;28;1362;-75
2023/07/25 00:13:58;;;;;;;;;;;;;;;26.99;56.43;99135.50;340855;28;1490;-75
2023/07/25 00:14:08;;;;;;;;;;;;;;;26.94;56.96;99136.00;336871;29;1300;-75
2023/07/25 00:14:18;;;;;;;;;;;;;;;26.90;57.22;99136.53;338349;29;1547;-75
2023/07/25 00:14:28;;;;;;;;;;;;;;;26.89;57.08;99133.00;339519;29;1380;-76
2023/07/25 00:14:39;;;;;;;;;;;;;;;26.87;57.29;99129.66;339672;29;1199;-76
2023/07/25 00:14:49;;;;;;;;;;;;;;;26.80;57.66;99132.25;341271;28;1041;-75
2023/07/25 00:14:59;;;;;;;;;;;;;;;26.77;57.89;99132.59;340918;29;934;-75
2023/07/25 00:15:09;;;;;;;;;;;;;;;26.75;57.88;99133.78;342075;28;1120;-75
2023/07/25 00:15:20;;;;;;;;;;;;;;;26.72;57.86;99135.00;341307;28;895;-75
2023/07/25 00:15:30;;;;;;;;;;;;;;;26.71;58.39;99127.94;340714;28;1517;-75
2023/07/25 00:15:40;;;;;;;;;;;;;;;26.71;58.37;99133.31;341081;29;856;-75
2023/07/25 00:15:50;;;;;;;;;;;;;;;26.71;58.24;99136.00;340180;28;1948;-75
2023/07/25 00:16:01;;;;;;;;;;;;;;;26.74;57.91;99138.31;340171;28;1447;-75
2023/07/25 00:16:11;;;;;;;;;;;;;;;26.74;58.02;99138.31;338295;29;885;-75
2023/07/25 00:16:21;;;;;;;;;;;;;;;26.77;58.01;99132.59;335763;29;1972;-75
2023/07/25 00:16:31;;;;;;;;;;;;;;;26.79;58.09;99132.44;333601;29;2132;-75
2023/07/25 00:16:41;;;;;;;;;;;;;;;26.80;58.27;99137.63;334109;29;1447;-75
2023/07/25 00:16:52;;;;;;;;;;;;;;;26.76;58.32;99141.69;333338;29;1721;-74
2023/07/25 00:17:02;;;;;;;;;;;;;;;26.74;58.55;99132.97;331781;29;1257;-74
2023/07/25 00:17:12;;;;;;;;;;;;;;;26.71;58.45;99146.75;331916;29;1181;-74
2023/07/25 00:17:22;;;;;;;;;;;;;;;26.71;58.50;99140.53;331780;29;866;-74
2023/07/25 00:17:32;;;;;;;;;;;;;;;26.69;58.61;99139.88;328589;30;1644;-74
2023/07/25 00:17:43;;;;;;;;;;;;;;;26.68;58.39;99141.72;328293;30;1461;-74
2023/07/25 00:17:53;;;;;;;;;;;;;;;26.68;58.70;99143.56;328293;30;854;-74
2023/07/25 00:18:04;;;;;;;;;;;;;;;26.68;58.47;99138.19;329401;29;2211;-75
2023/07/25 00:18:14;;;;;;;;;;;;;;;26.68;58.40;99140.88;328960;30;2318;-75
2023/07/25 00:18:24;;;;;;;;;;;;;;;26.69;58.63;99135.34;327073;30;772;-75
2023/07/25 00:18:35;;;;;;;;;;;;;;;26.71;58.45;99140.53;322543;30;2662;-75
2023/07/25 00:18:45;;;;;;;;;;;;;;;26.72;58.57;99144.88;322459;30;2668;-75
2023/07/25 00:18:55;;;;;;;;;;;;;;;26.72;58.20;99143.03;321065;30;1342;-75
2023/07/25 00:19:05;;;;;;;;;;;;;;;26.74;58.22;99137.50;323028;30;1794;-75
2023/07/25 00:19:16;;;;;;;;;;;;;;;26.74;58.22;99137.50;322863;30;1119;-75
2023/07/25 00:19:26;;;;;;;;;;;;;;;26.71;58.70;99133.31;322136;30;1428;-75
2023/07/25 00:19:36;;;;;;;;;;;;;;;26.71;58.43;99137.84;322419;30;1807;-75
2023/07/25 00:19:46;;;;;;;;;;;;;;;26.72;58.21;99139.53;323363;30;2312;-75
2023/07/25 00:19:56;;;;;;;;;;;;;;;26.73;58.16;99142.03;322176;30;1500;-75
2023/07/25 00:20:07;;;;;;;;;;;;;;;26.74;58.00;99141.00;324748;30;3015;-75
2023/07/25 00:20:17;;;;;;;;;;;;;;;26.73;58.32;99131.28;324982;30;2704;-75
2023/07/25 00:20:28;;;;;;;;;;;;;;;26.74;58.00;99132.97;322092;30;1656;-75
2023/07/25 00:20:38;;;;;;;;;;;;;;;26.78;58.13;99144.19;319340;30;2875;-75
2023/07/25 00:20:48;;;;;;;;;;;;;;;26.79;58.33;99140.47;318314;30;3569;-75
2023/07/25 00:20:58;;;;;;;;;;;;;;;26.80;57.96;99134.09;319614;30;3416;-75
2023/07/25 00:21:09;;;;;;;;;;;;;;;26.82;58.22;99138.28;319693;30;1444;-75
2023/07/25 00:21:19;;;;;;;;;;;;;;;26.78;57.88;99136.97;318719;30;2528;-76
2023/07/25 00:21:29;;;;;;;;;;;;;;;26.79;58.05;99140.47;317168;31;2110;-76
2023/07/25 00:21:39;;;;;;;;;;;;;;;26.81;57.98;99133.91;316481;31;1435;-76
2023/07/25 00:21:49;;;;;;;;;;;;;;;26.83;57.80;99136.44;317567;31;2684;-75
2023/07/25 00:22:00;;;;;;;;;;;;;;;26.87;57.84;99136.88;315249;31;3490;-75
2023/07/25 00:22:10;;;;;;;;;;;;;;;26.88;57.54;99134.00;313000;31;1147;-75
2023/07/25 00:22:20;;;;;;;;;;;;;;;26.91;57.49;99138.19;313754;31;4199;-75
2023/07/25 00:22:31;;;;;;;;;;;;;;;26.91;56.99;99138.19;311300;31;4392;-75
2023/07/25 00:22:41;;;;;;;;;;;;;;;26.90;57.22;99140.03;311997;31;830;-75
2023/07/25 00:22:51;;;;;;;;;;;;;;;26.90;56.88;99137.34;313860;31;4104;-75
2023/07/25 00:23:01;;;;;;;;;;;;;;;26.91;57.07;99138.19;311210;31;4193;-75
2023/07/25 00:23:12;;;;;;;;;;;;;;;26.91;56.89;99133.66;311920;31;839;-75
2023/07/25 00:23:22;;;;;;;;;;;;;;;26.92;56.87;99134.50;313304;31;4348;-75
2023/07/25 00:23:32;;;;;;;;;;;;;;;26.91;56.62;99135.50;310724;31;3584;-75
2023/07/25 00:23:42;;;;;;;;;;;;;;;26.92;56.71;99131.81;306557;32;1703;-75
2023/07/25 00:23:53;;;;;;;;;;;;;;;26.92;56.54;99132.66;307688;31;3005;-75
2023/07/25 00:24:04;;;;;;;;;;;;;;;26.86;56.53;99136.03;305399;32;4098;-75
2023/07/25 00:24:14;;;;;;;;;;;;;;;26.80;56.62;99126.03;306066;31;4284;-75
2023/07/25 00:24:24;;;;;;;;;;;;;;;26.78;56.79;99128.91;305444;32;1413;-75
2023/07/25 00:24:34;;;;;;;;;;;;;;;26.77;56.66;99131.78;302005;32;6159;-75
2023/07/25 00:24:44;;;;;;;;;;;;;;;26.75;56.86;99131.94;301735;32;4962;-76
2023/07/25 00:24:55;;;;;;;;;;;;;;;26.74;56.88;99127.59;302206;32;1814;-76
2023/07/25 00:25:05;;;;;;;;;;;;;;;26.70;56.71;99137.00;301289;32;5812;-75
2023/07/25 00:25:16;;;;;;;;;;;;;;;26.71;56.79;99133.31;301769;32;5318;-75
2023/07/25 00:25:27;;;;;;;;;;;;;;;26.72;56.89;99129.63;302399;32;841;-75
2023/07/25 00:25:37;;;;;;;;;;;;;;;26.72;56.90;99129.63;298344;32;6221;-75
2023/07/25 00:25:47;;;;;;;;;;;;;;;26.71;56.65;99127.94;298852;32;3768;-75
2023/07/25 00:25:57;;;;;;;;;;;;;;;26.72;56.91;99129.63;300320;32;805;-76
2023/07/25 00:26:07;;;;;;;;;;;;;;;26.71;56.59;99137.84;296790;33;4261;-75
2023/07/25 00:26:18;;;;;;;;;;;;;;;26.69;56.85;99135.34;296116;33;5488;-75
2023/07/25 00:26:28;;;;;;;;;;;;;;;26.70;56.88;99131.63;294212;33;1378;-75
2023/07/25 00:26:38;;;;;;;;;;;;;;;26.70;57.15;99128.97;286527;34;1237;-75
2023/07/25 00:26:48;;;;;;;;;;;;;;;26.72;56.95;99135.00;286087;34;6706;-75
2023/07/25 00:27:01;;;;;;;;;;;;;;;26.71;56.86;99127.94;284410;34;7110;-75
2023/07/25 00:27:12;;;;;;;;;;;;;;;26.71;56.89;99130.63;284276;34;1636;-75
2023/07/25 00:27:22;;;;;;;;;;;;;;;26.70;56.79;99126.28;281349;34;7951;-75
2023/07/25 00:27:32;;;;;;;;;;;;;;;26.69;57.08;99135.34;282291;34;7438;-75
2023/07/25 00:27:42;;;;;;;;;;;;;;;26.71;57.08;99137.84;285707;34;936;-75
2023/07/25 00:27:53;;;;;;;;;;;;;;;26.70;56.96;99137.00;285216;34;8401;-76
2023/07/25 00:30:04;;;;;;;;;;;;;;;26.72;57.12;99135.00;2500134;27;20448;-75
2023/07/25 00:30:14;;;;;;;;;;;;;;;26.74;57.03;99132.97;356206;27;850;-76
2023/07/25 00:30:24;;;;;;;;;;;;;;;26.74;57.09;99135.66;354396;27;1176;-76
2023/07/25 00:30:34;;;;;;;;;;;;;;;26.76;56.74;99132.78;351908;28;1207;-76
2023/07/25 00:30:45;;;;;;;;;;;;;;;26.73;56.72;99128.59;350585;28;760;-76
2023/07/25 00:30:55;;;;;;;;;;;;;;;26.75;56.90;99129.25;349070;28;2237;-75
2023/07/25 00:31:06;;;;;;;;;;;;;;;26.68;57.59;99133.66;349108;28;895;-75
2023/07/25 00:31:16;;;;;;;;;;;;;;;26.63;57.75;99130.66;348996;28;1262;-75
2023/07/25 00:31:27;;;;;;;;;;;;;;;26.63;57.42;99125.31;350243;28;1480;-75
2023/07/25 00:31:37;;;;;;;;;;;;;;;26.64;57.42;99128.81;350477;28;886;-75
2023/07/25 00:31:47;;;;;;;;;;;;;;;26.66;57.59;99129.47;350588;28;915;-75
2023/07/25 00:31:57;;;;;;;;;;;;;;;26.66;57.54;99133.00;349080;28;918;-75
2023/07/25 00:32:07;;;;;;;;;;;;;;;26.68;57.52;99127.47;346655;28;1472;-75
2023/07/25 00:32:18;;;;;;;;;;;;;;;26.70;57.44;99131.63;347777;28;880;-75
2023/07/25 00:32:28;;;;;;;;;;;;;;;26.73;57.26;99135.81;347630;28;934;-75
2023/07/25 00:32:38;;;;;;;;;;;;;;;26.74;57.26;99132.13;346433;28;938;-75
2023/07/25 00:32:49;;;;;;;;;;;;;;;26.72;57.28;99131.47;347830;28;792;-76
2023/07/25 00:32:59;;;;;;;;;;;;;;;26.68;57.52;99130.97;351731;28;1196;-76
2023/07/25 00:33:09;;;;;;;;;;;;;;;26.66;57.49;99130.31;347720;28;730;-76
2023/07/25 00:33:19;;;;;;;;;;;;;;;26.68;57.42;99127.47;346362;28;895;-75
2023/07/25 00:33:29;;;;;;;;;;;;;;;26.68;57.25;99127.47;347489;28;860;-75
2023/07/25 00:33:40;;;;;;;;;;;;;;;26.69;57.18;99132.66;346764;28;1231;-75
2023/07/25 00:33:50;;;;;;;;;;;;;;;26.68;57.30;99122.94;348147;28;1503;-75
2023/07/25 00:34:00;;;;;;;;;;;;;;;26.69;57.07;99129.97;351540;28;901;-75
2023/07/25 00:34:10;;;;;;;;;;;;;;;26.71;57.41;99127.94;350204;28;1506;-75
2023/07/25 00:34:21;;;;;;;;;;;;;;;26.73;57.39;99130.44;350472;28;934;-75
2023/07/25 00:34:31;;;;;;;;;;;;;;;26.75;56.97;99133.78;347685;28;890;-75
2023/07/25 00:34:41;;;;;;;;;;;;;;;26.76;57.40;99130.94;349639;28;1691;-76
2023/07/25 00:34:51;;;;;;;;;;;;;;;26.76;57.39;99139.00;347712;28;1627;-76
2023/07/25 00:35:02;;;;;;;;;;;;;;;26.78;57.26;99134.28;347634;28;1338;-76
2023/07/25 00:35:12;;;;;;;;;;;;;;;26.78;57.01;99134.28;346239;28;1333;-76
2023/07/25 00:35:22;;;;;;;;;;;;;;;26.80;57.17;99134.94;348036;28;1432;-76
2023/07/25 00:35:32;;;;;;;;;;;;;;;26.81;57.16;99136.59;346867;28;1478;-75
2023/07/25 00:35:49;;;;;;;;;;;;;;;26.82;56.96;99135.59;347523;28;1331;-75
2023/07/25 00:36:00;;;;;;;;;;;;;;;26.84;57.08;99132.72;347740;28;1410;-76
2023/07/25 00:36:10;;;;;;;;;;;;;;;26.83;56.70;99131.91;345195;28;1269;-76
2023/07/25 00:36:20;;;;;;;;;;;;;;;26.84;56.80;99132.72;346350;28;962;-75
2023/07/25 00:36:30;;;;;;;;;;;;;;;26.85;56.77;99137.09;346431;28;1142;-75
2023/07/25 00:36:41;;;;;;;;;;;;;;;26.84;56.94;99136.25;346995;28;1165;-75
2023/07/25 00:36:51;;;;;;;;;;;;;;;26.82;56.83;99135.59;347705;28;957;-76
2023/07/25 00:37:01;;;;;;;;;;;;;;;26.81;56.84;99136.59;346299;28;1400;-76
2023/07/25 00:37:12;;;;;;;;;;;;;;;26.81;56.79;99139.28;343189;28;1359;-76
2023/07/25 00:37:22;;;;;;;;;;;;;;;26.80;56.93;99137.63;342265;28;1189;-76
2023/07/25 00:37:32;;;;;;;;;;;;;;;26.79;56.92;99141.31;344872;28;1236;-76
2023/07/25 00:37:42;;;;;;;;;;;;;;;26.80;56.93;99136.78;344811;28;1215;-76
2023/07/25 00:37:53;;;;;;;;;;;;;;;26.77;56.50;99143.34;345085;28;1203;-76
2023/07/25 00:38:04;;;;;;;;;;;;;;;26.77;56.86;99137.13;344942;28;1301;-76
2023/07/25 00:38:14;;;;;;;;;;;;;;;26.76;56.97;99147.03;348134;28;1427;-76
2023/07/25 00:38:24;;;;;;;;;;;;;;;26.76;56.77;99141.69;345650;28;1255;-76
2023/07/25 00:38:35;;;;;;;;;;;;;;;26.74;56.97;99138.31;343544;28;1240;-76
2023/07/25 00:38:45;;;;;;;;;;;;;;;26.73;57.17;99135.81;341022;28;1533;-76
2023/07/25 00:38:55;;;;;;;;;;;;;;;26.72;57.18;99147.56;339399;29;1574;-76
2023/07/25 00:39:05;;;;;;;;;;;;;;;26.71;57.23;99143.22;339726;29;1226;-76
2023/07/25 00:39:15;;;;;;;;;;;;;;;26.68;56.87;99141.72;343333;28;1196;-76
2023/07/25 00:39:26;;;;;;;;;;;;;;;26.67;57.07;99137.38;344315;28;1311;-76
2023/07/25 00:39:36;;;;;;;;;;;;;;;26.66;57.49;99141.06;343652;28;916;-76
2023/07/25 00:39:46;;;;;;;;;;;;;;;26.66;57.53;99141.06;340935;29;1472;-76
2023/07/25 00:39:57;;;;;;;;;;;;;;;26.67;57.32;99136.53;341224;28;1742;-76
2023/07/25 00:40:07;;;;;;;;;;;;;;;26.67;57.55;99141.91;338002;29;1662;-75
2023/07/25 00:40:17;;;;;;;;;;;;;;;26.67;57.35;99145.41;338351;29;1724;-75
2023/07/25 00:40:28;;;;;;;;;;;;;;;26.65;57.30;99144.75;337014;29;1969;-75
2023/07/25 00:40:38;;;;;;;;;;;;;;;26.66;57.39;99149.13;337469;29;2064;-76
2023/07/25 00:40:49;;;;;;;;;;;;;;;26.66;57.50;99146.44;334434;29;1262;-76
2023/07/25 00:40:59;;;;;;;;;;;;;;;26.67;57.31;99142.72;335278;29;2106;-76
2023/07/25 00:41:09;;;;;;;;;;;;;;;26.68;57.30;99140.88;334224;29;1694;-76
2023/07/25 00:41:19;;;;;;;;;;;;;;;26.65;57.58;99139.38;333226;29;1299;-76
2023/07/25 00:41:29;;;;;;;;;;;;;;;26.69;57.46;99145.25;334220;29;1335;-75
2023/07/25 00:41:40;;;;;;;;;;;;;;;26.69;57.39;99140.72;332249;29;1176;-75
2023/07/25 00:41:50;;;;;;;;;;;;;;;26.70;57.62;99145.06;330706;29;992;-75
2023/07/25 00:42:00;;;;;;;;;;;;;;;26.71;57.33;99143.22;329080;29;1949;-75
2023/07/25 00:42:10;;;;;;;;;;;;;;;26.72;57.34;99147.56;329449;29;2505;-75
2023/07/25 00:42:21;;;;;;;;;;;;;;;26.73;57.46;99147.41;328872;30;1424;-76
2023/07/25 00:42:31;;;;;;;;;;;;;;;26.73;57.49;99142.03;328928;30;2089;-76
2023/07/25 00:42:41;;;;;;;;;;;;;;;26.73;57.68;99146.56;327234;30;2401;-76
2023/07/25 00:42:54;;;;;;;;;;;;;;;26.70;57.87;99146.91;324170;30;2639;-77
2023/07/25 00:43:05;;;;;;;;;;;;;;;26.68;57.46;99144.41;322287;30;911;-76
2023/07/25 00:43:15;;;;;;;;;;;;;;;26.67;57.92;99140.06;324242;30;2742;-76
2023/07/25 00:43:25;;;;;;;;;;;;;;;26.66;57.88;99141.06;323880;30;1925;-76
2023/07/25 00:43:35;;;;;;;;;;;;;;;26.67;57.96;99142.72;322261;30;1452;-76
2023/07/25 00:43:45;;;;;;;;;;;;;;;26.67;57.75;99147.25;323132;30;1466;-76
2023/07/25 00:43:56;;;;;;;;;;;;;;;26.65;58.07;99144.75;321873;30;2960;-76
2023/07/25 00:44:06;;;;;;;;;;;;;;;26.65;58.04;99139.38;320055;30;1147;-76
2023/07/25 00:44:16;;;;;;;;;;;;;;;26.63;58.16;99140.56;321646;30;2423;-76
2023/07/25 00:44:26;;;;;;;;;;;;;;;26.61;58.29;99145.28;319766;30;2975;-76
2023/07/25 00:44:36;;;;;;;;;;;;;;;26.59;58.12;99140.09;319234;30;3116;-76
2023/07/25 00:44:47;;;;;;;;;;;;;;;26.59;57.96;99140.09;324569;30;1189;-77
2023/07/25 00:44:57;;;;;;;;;;;;;;;26.59;58.12;99142.78;323421;30;3448;-77
2023/07/25 00:45:07;;;;;;;;;;;;;;;26.59;58.20;99150.00;322194;30;3419;-77
2023/07/25 00:45:18;;;;;;;;;;;;;;;26.56;58.44;99151.19;327087;30;1187;-77
2023/07/25 00:45:28;;;;;;;;;;;;;;;26.52;58.32;99144.50;325974;30;3480;-76
2023/07/25 00:45:39;;;;;;;;;;;;;;;26.50;58.53;99147.34;327512;30;2846;-76
2023/07/25 00:45:49;;;;;;;;;;;;;;;26.49;58.48;99150.22;323425;30;1376;-77
2023/07/25 00:45:59;;;;;;;;;;;;;;;26.49;58.67;99142.16;322087;30;2203;-77
2023/07/25 00:46:09;;;;;;;;;;;;;;;26.50;58.43;99149.19;318712;30;2800;-77
2023/07/25 00:46:20;;;;;;;;;;;;;;;26.51;58.38;99143.66;319867;30;1317;-77
2023/07/25 00:46:30;;;;;;;;;;;;;;;26.54;58.70;99149.69;320229;30;3508;-77
2023/07/25 00:46:40;;;;;;;;;;;;;;;26.56;58.23;99145.81;319004;30;4228;-77
2023/07/25 00:46:51;;;;;;;;;;;;;;;26.57;58.46;99150.16;317498;31;1475;-77
2023/07/25 00:47:01;;;;;;;;;;;;;;;26.53;58.61;99154.22;314535;31;4169;-77
2023/07/25 00:47:11;;;;;;;;;;;;;;;26.50;58.63;99144.66;313936;31;4372;-75
2023/07/25 00:47:21;;;;;;;;;;;;;;;26.47;58.70;99146.88;313592;31;4854;-75
2023/07/25 00:47:32;;;;;;;;;;;;;;;26.46;58.86;99140.66;315284;31;779;-74
2023/07/25 00:47:42;;;;;;;;;;;;;;;26.44;58.77;99145.38;309964;31;4357;-74
2023/07/25 00:47:52;;;;;;;;;;;;;;;26.45;58.98;99143.50;309581;31;3157;-74
2023/07/25 00:48:02;;;;;;;;;;;;;;;26.46;58.93;99145.19;309811;31;1311;-76
2023/07/25 00:48:13;;;;;;;;;;;;;;;26.46;58.85;99151.41;308163;31;3243;-76
2023/07/25 00:48:23;;;;;;;;;;;;;;;26.43;59.13;99146.38;306842;31;3805;-76
2023/07/25 00:48:33;;;;;;;;;;;;;;;26.46;59.02;99150.56;307455;32;2080;-76
2023/07/25 00:48:44;;;;;;;;;;;;;;;26.46;58.89;99142.50;306564;31;4861;-76
2023/07/25 00:48:54;;;;;;;;;;;;;;;26.47;59.01;99146.88;305709;32;5853;-75
2023/07/25 00:49:04;;;;;;;;;;;;;;;26.47;59.01;99146.88;303306;32;1457;-75
2023/07/25 00:49:15;;;;;;;;;;;;;;;26.48;59.07;99148.53;304053;32;5694;-75
2023/07/25 00:49:25;;;;;;;;;;;;;;;26.49;58.55;99150.22;301744;32;5964;-75
2023/07/25 00:49:35;;;;;;;;;;;;;;;26.47;58.87;99152.22;302348;32;797;-75
2023/07/25 00:49:46;;;;;;;;;;;;;;;26.48;58.90;99151.22;303130;32;5662;-75
2023/07/25 00:49:57;;;;;;;;;;;;;;;26.48;58.89;99153.91;302523;32;6016;-74
2023/07/25 00:50:07;;;;;;;;;;;;;;;26.48;59.02;99148.53;300770;32;4810;-74
2023/07/25 00:50:18;;;;;;;;;;;;;;;26.48;59.01;99143.16;298130;33;1248;-76
2023/07/25 00:50:29;;;;;;;;;;;;;;;26.49;59.01;99155.56;295094;33;5643;-76
2023/07/25 00:50:39;;;;;;;;;;;;;;;26.48;58.78;99153.91;291707;33;6311;-78
2023/07/25 00:50:50;;;;;;;;;;;;;;;26.48;59.11;99149.38;292216;33;1292;-76
2023/07/25 00:51:00;;;;;;;;;;;;;;;26.43;59.28;99151.75;293951;33;7513;-76
2023/07/25 00:51:10;;;;;;;;;;;;;;;26.41;59.44;99158.31;290930;33;8658;-77
2023/07/25 00:51:20;;;;;;;;;;;;;;;26.36;59.31;99155.31;289387;34;1267;-77
2023/07/25 00:51:31;;;;;;;;;;;;;;;26.36;59.52;99149.97;288709;33;8450;-77
2023/07/25 00:51:41;;;;;;;;;;;;;;;26.30;59.64;99146.09;288860;33;8515;-77
2023/07/25 00:51:52;;;;;;;;;;;;;;;26.25;59.67;99144.94;287852;34;7833;-77
2023/07/25 00:52:02;;;;;;;;;;;;;;;26.25;59.76;99156.50;287455;34;1224;-77
2023/07/25 00:52:12;;;;;;;;;;;;;;;26.26;59.52;99149.28;285996;34;8959;-76
2023/07/25 00:52:23;;;;;;;;;;;;;;;26.27;59.55;99146.44;285673;34;6588;-76
2023/07/25 00:54:25;;;;;;;;;;;;;;;26.34;58.89;99150.13;2504133;27;19956;-76
2023/07/25 00:54:38;;;;;;;;;;;;;;;26.34;59.00;99154.66;356188;27;871;-76
2023/07/25 00:54:49;;;;;;;;;;;;;;;26.37;58.91;99151.63;354782;27;878;-76
2023/07/25 00:54:59;;;;;;;;;;;;;;;26.38;58.78;99150.63;351792;28;1288;-76
2023/07/25 00:55:09;;;;;;;;;;;;;;;26.40;58.77;99157.50;351816;28;816;-76
2023/07/25 00:55:21;;;;;;;;;;;;;;;26.41;58.72;99153.78;351913;28;1310;-76
2023/07/25 00:55:31;;;;;;;;;;;;;;;26.43;58.54;99151.75;350194;28;1348;-76
2023/07/25 00:55:42;;;;;;;;;;;;;;;26.44;58.43;99160.63;350947;28;1448;-77
2023/07/25 00:55:52;;;;;;;;;;;;;;;26.46;58.42;99155.94;352965;28;918;-76
2023/07/25 00:56:03;;;;;;;;;;;;;;;26.47;58.18;99162.97;351864;28;907;-76
2023/07/25 00:56:13;;;;;;;;;;;;;;;26.47;58.14;99157.59;350388;28;1438;-76
2023/07/25 00:56:23;;;;;;;;;;;;;;;26.49;58.20;99163.63;350467;28;910;-76
2023/07/25 00:56:33;;;;;;;;;;;;;;;26.48;58.29;99159.28;349133;28;1343;-76
2023/07/25 00:56:44;;;;;;;;;;;;;;;26.46;58.35;99155.94;349126;28;859;-76
2023/07/25 00:56:54;;;;;;;;;;;;;;;26.44;58.14;99152.59;349187;28;812;-76
2023/07/25 00:57:05;;;;;;;;;;;;;;;26.43;58.14;99151.75;350445;28;1199;-76
2023/07/25 00:57:15;;;;;;;;;;;;;;;26.41;58.20;99158.31;348907;28;1210;-76
2023/07/25 00:57:26;;;;;;;;;;;;;;;26.40;58.64;99156.66;346216;28;1194;-76
2023/07/25 00:57:36;;;;;;;;;;;;;;;26.37;58.70;99155.16;349071;28;1372;-76
2023/07/25 00:57:46;;;;;;;;;;;;;;;26.36;58.67;99153.47;349175;28;855;-76
2023/07/25 00:57:56;;;;;;;;;;;;;;;26.37;58.80;99157.00;347751;28;1211;-76
2023/07/25 00:58:07;;;;;;;;;;;;;;;26.35;58.82;99159.88;349016;28;1287;-76
2023/07/25 00:58:17;;;;;;;;;;;;;;;26.36;58.68;99152.66;347066;28;1048;-76
2023/07/25 00:58:28;;;;;;;;;;;;;;;26.38;58.53;99156.00;350579;28;1311;-76
2023/07/25 00:58:38;;;;;;;;;;;;;;;26.40;58.44;99156.66;350361;28;1757;-76
2023/07/25 00:58:49;;;;;;;;;;;;;;;26.39;58.65;99155.81;350497;28;1178;-76
2023/07/25 00:58:59;;;;;;;;;;;;;;;26.39;58.78;99155.81;348957;28;1392;-76
2023/07/25 00:59:09;;;;;;;;;;;;;;;26.37;58.81;99157.84;346261;28;1038;-76
2023/07/25 00:59:19;;;;;;;;;;;;;;;26.34;58.84;99157.34;347648;28;1330;-76
2023/07/25 00:59:30;;;;;;;;;;;;;;;26.35;58.68;99153.66;349172;28;863;-76
2023/07/25 00:59:40;;;;;;;;;;;;;;;26.35;58.74;99154.50;347660;28;1525;-76
2023/07/25 00:59:50;;;;;;;;;;;;;;;26.35;58.75;99162.53;346299;28;1406;-76
2023/07/25 01:00:00;;;;;;;;;;;;;;;26.36;58.74;99156.16;347559;28;1259;-76
2023/07/25 01:00:11;;;;;;;;;;;;;;;26.37;58.64;99157.00;346252;28;1317;-76
2023/07/25 01:00:21;;;;;;;;;;;;;;;26.33;59.10;99158.38;349667;28;1070;-76
2023/07/25 01:00:31;;;;;;;;;;;;;;;26.31;59.04;99158.53;349108;28;919;-76
2023/07/25 01:00:42;;;;;;;;;;;;;;;26.29;59.12;99154.31;347863;28;1379;-76
2023/07/25 01:00:53;;;;;;;;;;;;;;;26.28;59.19;99152.66;345193;28;1034;-76
2023/07/25 01:01:03;;;;;;;;;;;;;;;26.25;58.99;99153.84;346659;28;1424;-76
2023/07/25 01:01:13;;;;;;;;;;;;;;;26.23;59.12;99157.69;347619;28;867;-76